KASJ

Tri-County Airport

Ahoskie, North Carolina, USA
METAR KASJ 242110Z AUTO 35004KT 10SM SCT027 BKN035 BKN048 26/22 A3019 RMK AO2 T02630221
Observed Flight Rules
Sep-24 @ 21:10 UTC (22 minutes ago) Visual Flight Rules
Wind Visibility Clouds
350° at 4 knots 10 miles
  • Scattered at 2,700' AGL
  • Broken at 3,500' AGL
  • Broken at 4,800' AGL
Temperatures Readings
Current 26°C / 79°F
Dewpoint 22°C / 72°F
Humidity 79%
Altimeter 30.19" Hg
Pressure 1022 hPa
Elevation 21
METAR KASJ 242110Z AUTO 35004KT 10SM SCT027 BKN035 BKN048 26/22 A3019 RMK AO2 T02630221
Observed Flight Rules
Sep-24 @ 21:10 UTC
(22 minutes ago)
VFR
Wind Visibility
350° at 4 knots 10 miles
Clouds
  • Scattered at 2,700' AGL
  • Broken at 3,500' AGL
  • Broken at 4,800' AGL
Temperature Dewpoint
26°C / 79°F 22°C / 72°F
Humidity Altimeter Pressure
79% 30.19" Hg 1022 hPa